sensor_id;sensor_type;location;lat;lon;timestamp;P1;durP1;ratioP1;P2;durP2;ratioP2
22557;SDS011;11445;53.816;8.902;2023-01-15T00:00:59;8.65;;;1.15;;
22557;SDS011;11445;53.816;8.902;2023-01-15T00:03:26;8.25;;;1.25;;
22557;SDS011;11445;53.816;8.902;2023-01-15T00:05:54;3.95;;;0.80;;
22557;SDS011;11445;53.816;8.902;2023-01-15T00:08:21;6.22;;;1.17;;
22557;SDS011;11445;53.816;8.902;2023-01-15T00:10:50;3.97;;;1.10;;
22557;SDS011;11445;53.816;8.902;2023-01-15T00:13:17;4.05;;;1.02;;
22557;SDS011;11445;53.816;8.902;2023-01-15T00:15:44;6.70;;;1.00;;
22557;SDS011;11445;53.816;8.902;2023-01-15T00:18:11;6.43;;;1.13;;
22557;SDS011;11445;53.816;8.902;2023-01-15T00:20:38;3.08;;;0.90;;
22557;SDS011;11445;53.816;8.902;2023-01-15T00:23:05;7.30;;;1.27;;
22557;SDS011;11445;53.816;8.902;2023-01-15T00:25:56;4.18;;;1.55;;
22557;SDS011;11445;53.816;8.902;2023-01-15T00:28:40;6.00;;;1.30;;
22557;SDS011;11445;53.816;8.902;2023-01-15T00:31:07;3.95;;;0.70;;
22557;SDS011;11445;53.816;8.902;2023-01-15T00:33:34;2.17;;;1.00;;
22557;SDS011;11445;53.816;8.902;2023-01-15T00:36:01;2.45;;;1.00;;
22557;SDS011;11445;53.816;8.902;2023-01-15T00:38:28;4.40;;;1.13;;
22557;SDS011;11445;53.816;8.902;2023-01-15T00:40:57;6.00;;;1.00;;
22557;SDS011;11445;53.816;8.902;2023-01-15T00:43:24;3.63;;;0.80;;
22557;SDS011;11445;53.816;8.902;2023-01-15T00:45:51;3.40;;;0.80;;
22557;SDS011;11445;53.816;8.902;2023-01-15T00:48:18;4.97;;;0.80;;
22557;SDS011;11445;53.816;8.902;2023-01-15T00:50:45;4.68;;;1.00;;
22557;SDS011;11445;53.816;8.902;2023-01-15T00:53:12;3.72;;;0.70;;
22557;SDS011;11445;53.816;8.902;2023-01-15T00:55:39;4.57;;;1.00;;
22557;SDS011;11445;53.816;8.902;2023-01-15T00:58:07;2.25;;;1.10;;
22557;SDS011;11445;53.816;8.902;2023-01-15T01:00:35;3.38;;;1.00;;
22557;SDS011;11445;53.816;8.902;2023-01-15T01:03:02;4.90;;;1.08;;
22557;SDS011;11445;53.816;8.902;2023-01-15T01:05:29;7.55;;;1.20;;
22557;SDS011;11445;53.816;8.902;2023-01-15T01:07:57;6.90;;;1.35;;
22557;SDS011;11445;53.816;8.902;2023-01-15T01:10:24;4.57;;;1.20;;
22557;SDS011;11445;53.816;8.902;2023-01-15T01:12:51;6.32;;;1.50;;
22557;SDS011;11445;53.816;8.902;2023-01-15T01:15:21;6.10;;;1.15;;
22557;SDS011;11445;53.816;8.902;2023-01-15T01:17:50;6.22;;;1.13;;
22557;SDS011;11445;53.816;8.902;2023-01-15T01:20:17;7.75;;;1.15;;
22557;SDS011;11445;53.816;8.902;2023-01-15T01:22:46;5.18;;;1.30;;
22557;SDS011;11445;53.816;8.902;2023-01-15T01:25:14;8.27;;;1.38;;
22557;SDS011;11445;53.816;8.902;2023-01-15T01:27:42;5.63;;;1.10;;
22557;SDS011;11445;53.816;8.902;2023-01-15T01:30:10;3.22;;;0.90;;
22557;SDS011;11445;53.816;8.902;2023-01-15T01:32:39;10.70;;;1.95;;
22557;SDS011;11445;53.816;8.902;2023-01-15T01:35:09;4.68;;;0.93;;
22557;SDS011;11445;53.816;8.902;2023-01-15T01:37:37;7.13;;;1.55;;
22557;SDS011;11445;53.816;8.902;2023-01-15T01:40:04;4.35;;;0.80;;
22557;SDS011;11445;53.816;8.902;2023-01-15T01:42:31;4.70;;;1.35;;
22557;SDS011;11445;53.816;8.902;2023-01-15T01:45:06;9.73;;;1.40;;
22557;SDS011;11445;53.816;8.902;2023-01-15T01:50:11;5.32;;;1.25;;
22557;SDS011;11445;53.816;8.902;2023-01-15T01:52:41;7.57;;;1.40;;
22557;SDS011;11445;53.816;8.902;2023-01-15T01:55:12;8.98;;;1.02;;
22557;SDS011;11445;53.816;8.902;2023-01-15T01:57:43;11.32;;;1.75;;
22557;SDS011;11445;53.816;8.902;2023-01-15T02:00:11;6.90;;;1.17;;
22557;SDS011;11445;53.816;8.902;2023-01-15T02:02:40;8.15;;;1.45;;
22557;SDS011;11445;53.816;8.902;2023-01-15T02:05:11;5.25;;;1.35;;
22557;SDS011;11445;53.816;8.902;2023-01-15T02:07:43;6.57;;;1.48;;
22557;SDS011;11445;53.816;8.902;2023-01-15T02:10:13;5.95;;;1.45;;
22557;SDS011;11445;53.816;8.902;2023-01-15T02:12:44;11.07;;;1.60;;
22557;SDS011;11445;53.816;8.902;2023-01-15T02:15:15;12.30;;;1.77;;
22557;SDS011;11445;53.816;8.902;2023-01-15T02:17:46;9.52;;;1.48;;
22557;SDS011;11445;53.816;8.902;2023-01-15T02:20:22;7.15;;;1.67;;
22557;SDS011;11445;53.816;8.902;2023-01-15T02:26:21;6.95;;;1.38;;
22557;SDS011;11445;53.816;8.902;2023-01-15T02:29:04;4.97;;;1.25;;
22557;SDS011;11445;53.816;8.902;2023-01-15T02:31:36;4.80;;;1.35;;
22557;SDS011;11445;53.816;8.902;2023-01-15T02:34:08;7.45;;;1.33;;
22557;SDS011;11445;53.816;8.902;2023-01-15T02:36:40;3.87;;;1.20;;
22557;SDS011;11445;53.816;8.902;2023-01-15T02:39:10;9.52;;;2.38;;
22557;SDS011;11445;53.816;8.902;2023-01-15T02:41:44;10.57;;;1.38;;
22557;SDS011;11445;53.816;8.902;2023-01-15T02:44:13;6.72;;;1.27;;
22557;SDS011;11445;53.816;8.902;2023-01-15T02:46:45;13.90;;;1.45;;
22557;SDS011;11445;53.816;8.902;2023-01-15T02:49:14;12.73;;;1.85;;
22557;SDS011;11445;53.816;8.902;2023-01-15T02:51:45;12.70;;;1.80;;
22557;SDS011;11445;53.816;8.902;2023-01-15T02:54:17;10.07;;;1.67;;
22557;SDS011;11445;53.816;8.902;2023-01-15T02:56:50;9.88;;;1.58;;
22557;SDS011;11445;53.816;8.902;2023-01-15T02:59:19;7.00;;;1.65;;
22557;SDS011;11445;53.816;8.902;2023-01-15T03:01:49;6.13;;;1.45;;
22557;SDS011;11445;53.816;8.902;2023-01-15T03:04:21;6.90;;;1.58;;
22557;SDS011;11445;53.816;8.902;2023-01-15T03:06:54;11.93;;;1.92;;
22557;SDS011;11445;53.816;8.902;2023-01-15T03:09:29;5.30;;;1.38;;
22557;SDS011;11445;53.816;8.902;2023-01-15T03:12:00;5.57;;;1.20;;
22557;SDS011;11445;53.816;8.902;2023-01-15T03:14:31;11.32;;;1.65;;
22557;SDS011;11445;53.816;8.902;2023-01-15T03:17:04;5.53;;;1.48;;
22557;SDS011;11445;53.816;8.902;2023-01-15T03:19:38;4.18;;;1.50;;
22557;SDS011;11445;53.816;8.902;2023-01-15T03:22:11;12.48;;;1.83;;
22557;SDS011;11445;53.816;8.902;2023-01-15T03:24:45;13.23;;;1.58;;
22557;SDS011;11445;53.816;8.902;2023-01-15T03:27:16;14.20;;;2.15;;
22557;SDS011;11445;53.816;8.902;2023-01-15T03:29:44;15.48;;;1.75;;
22557;SDS011;11445;53.816;8.902;2023-01-15T03:32:13;6.82;;;1.50;;
22557;SDS011;11445;53.816;8.902;2023-01-15T03:34:42;11.73;;;1.88;;
22557;SDS011;11445;53.816;8.902;2023-01-15T03:37:11;9.60;;;1.55;;
22557;SDS011;11445;53.816;8.902;2023-01-15T03:39:39;13.23;;;1.55;;
22557;SDS011;11445;53.816;8.902;2023-01-15T03:45:01;4.60;;;1.55;;
22557;SDS011;11445;53.816;8.902;2023-01-15T03:47:39;7.75;;;1.33;;
22557;SDS011;11445;53.816;8.902;2023-01-15T03:50:15;11.93;;;1.77;;
22557;SDS011;11445;53.816;8.902;2023-01-15T03:52:49;8.98;;;1.63;;
22557;SDS011;11445;53.816;8.902;2023-01-15T03:55:24;11.77;;;1.88;;
22557;SDS011;11445;53.816;8.902;2023-01-15T03:57:58;14.27;;;2.35;;
22557;SDS011;11445;53.816;8.902;2023-01-15T04:00:29;10.88;;;1.75;;
22557;SDS011;11445;53.816;8.902;2023-01-15T04:05:29;13.60;;;1.90;;
22557;SDS011;11445;53.816;8.902;2023-01-15T04:07:57;8.95;;;1.92;;
22557;SDS011;11445;53.816;8.902;2023-01-15T04:10:25;9.70;;;1.80;;
22557;SDS011;11445;53.816;8.902;2023-01-15T04:12:52;14.35;;;1.90;;
22557;SDS011;11445;53.816;8.902;2023-01-15T04:15:21;17.67;;;2.08;;
22557;SDS011;11445;53.816;8.902;2023-01-15T04:17:48;10.48;;;1.85;;
22557;SDS011;11445;53.816;8.902;2023-01-15T04:20:15;13.55;;;1.80;;
22557;SDS011;11445;53.816;8.902;2023-01-15T04:22:42;18.23;;;1.73;;
22557;SDS011;11445;53.816;8.902;2023-01-15T04:25:09;10.40;;;1.95;;
22557;SDS011;11445;53.816;8.902;2023-01-15T04:27:36;12.40;;;2.15;;
22557;SDS011;11445;53.816;8.902;2023-01-15T04:30:04;11.60;;;1.65;;
22557;SDS011;11445;53.816;8.902;2023-01-15T04:32:33;19.15;;;1.70;;
22557;SDS011;11445;53.816;8.902;2023-01-15T04:35:00;18.20;;;2.67;;
22557;SDS011;11445;53.816;8.902;2023-01-15T04:37:27;12.35;;;1.80;;
22557;SDS011;11445;53.816;8.902;2023-01-15T04:39:54;10.88;;;2.10;;
22557;SDS011;11445;53.816;8.902;2023-01-15T04:42:21;7.18;;;1.80;;
22557;SDS011;11445;53.816;8.902;2023-01-15T04:45:06;11.13;;;1.77;;
22557;SDS011;11445;53.816;8.902;2023-01-15T04:47:35;10.60;;;1.63;;
22557;SDS011;11445;53.816;8.902;2023-01-15T04:50:02;6.70;;;1.52;;
22557;SDS011;11445;53.816;8.902;2023-01-15T04:52:30;12.00;;;2.17;;
22557;SDS011;11445;53.816;8.902;2023-01-15T04:54:57;13.57;;;1.92;;
22557;SDS011;11445;53.816;8.902;2023-01-15T04:57:24;10.88;;;1.95;;
22557;SDS011;11445;53.816;8.902;2023-01-15T04:59:51;8.80;;;1.90;;
22557;SDS011;11445;53.816;8.902;2023-01-15T05:02:18;10.20;;;1.90;;
22557;SDS011;11445;53.816;8.902;2023-01-15T05:04:46;14.50;;;2.20;;
22557;SDS011;11445;53.816;8.902;2023-01-15T05:07:14;12.05;;;1.88;;
22557;SDS011;11445;53.816;8.902;2023-01-15T05:09:41;18.38;;;2.45;;
22557;SDS011;11445;53.816;8.902;2023-01-15T05:12:08;15.75;;;2.58;;
22557;SDS011;11445;53.816;8.902;2023-01-15T05:14:35;16.35;;;2.50;;
22557;SDS011;11445;53.816;8.902;2023-01-15T05:17:02;10.15;;;1.85;;
22557;SDS011;11445;53.816;8.902;2023-01-15T05:19:29;10.02;;;2.45;;
22557;SDS011;11445;53.816;8.902;2023-01-15T05:21:58;9.85;;;2.00;;
22557;SDS011;11445;53.816;8.902;2023-01-15T05:24:25;5.68;;;1.70;;
22557;SDS011;11445;53.816;8.902;2023-01-15T05:26:52;8.40;;;2.28;;
22557;SDS011;11445;53.816;8.902;2023-01-15T05:29:19;9.55;;;1.98;;
22557;SDS011;11445;53.816;8.902;2023-01-15T05:31:46;20.00;;;2.15;;
22557;SDS011;11445;53.816;8.902;2023-01-15T05:34:13;15.80;;;2.10;;
22557;SDS011;11445;53.816;8.902;2023-01-15T05:36:40;9.10;;;1.75;;
22557;SDS011;11445;53.816;8.902;2023-01-15T05:39:09;6.82;;;1.88;;
22557;SDS011;11445;53.816;8.902;2023-01-15T05:41:36;17.02;;;3.25;;
22557;SDS011;11445;53.816;8.902;2023-01-15T05:44:16;11.80;;;1.60;;
22557;SDS011;11445;53.816;8.902;2023-01-15T05:46:45;13.60;;;1.60;;
22557;SDS011;11445;53.816;8.902;2023-01-15T05:49:14;13.27;;;2.05;;
22557;SDS011;11445;53.816;8.902;2023-01-15T05:51:43;10.27;;;1.77;;
22557;SDS011;11445;53.816;8.902;2023-01-15T05:54:12;16.83;;;2.22;;
22557;SDS011;11445;53.816;8.902;2023-01-15T05:56:41;12.07;;;2.03;;
22557;SDS011;11445;53.816;8.902;2023-01-15T05:59:10;13.30;;;2.58;;
22557;SDS011;11445;53.816;8.902;2023-01-15T06:01:37;21.73;;;2.22;;
22557;SDS011;11445;53.816;8.902;2023-01-15T06:04:05;12.02;;;1.80;;
22557;SDS011;11445;53.816;8.902;2023-01-15T06:06:32;8.35;;;2.00;;
22557;SDS011;11445;53.816;8.902;2023-01-15T06:09:00;7.53;;;1.98;;
22557;SDS011;11445;53.816;8.902;2023-01-15T06:11:29;9.32;;;1.80;;
22557;SDS011;11445;53.816;8.902;2023-01-15T06:13:56;7.30;;;1.65;;
22557;SDS011;11445;53.816;8.902;2023-01-15T06:16:23;17.08;;;2.45;;
22557;SDS011;11445;53.816;8.902;2023-01-15T06:18:51;9.38;;;2.10;;
22557;SDS011;11445;53.816;8.902;2023-01-15T06:21:18;13.65;;;2.30;;
22557;SDS011;11445;53.816;8.902;2023-01-15T06:23:46;17.60;;;2.13;;
22557;SDS011;11445;53.816;8.902;2023-01-15T06:26:14;9.98;;;1.92;;
22557;SDS011;11445;53.816;8.902;2023-01-15T06:28:44;7.65;;;1.80;;
22557;SDS011;11445;53.816;8.902;2023-01-15T06:31:12;4.05;;;1.20;;
22557;SDS011;11445;53.816;8.902;2023-01-15T06:33:40;16.15;;;2.50;;
22557;SDS011;11445;53.816;8.902;2023-01-15T06:36:09;15.32;;;2.42;;
22557;SDS011;11445;53.816;8.902;2023-01-15T06:38:37;11.20;;;2.22;;
22557;SDS011;11445;53.816;8.902;2023-01-15T06:41:05;15.02;;;2.67;;
22557;SDS011;11445;53.816;8.902;2023-01-15T06:43:55;11.45;;;2.05;;
22557;SDS011;11445;53.816;8.902;2023-01-15T06:46:42;8.43;;;1.98;;
22557;SDS011;11445;53.816;8.902;2023-01-15T06:49:27;16.25;;;2.63;;
22557;SDS011;11445;53.816;8.902;2023-01-15T06:51:55;10.10;;;2.25;;
22557;SDS011;11445;53.816;8.902;2023-01-15T06:54:22;8.63;;;1.77;;
22557;SDS011;11445;53.816;8.902;2023-01-15T06:56:49;16.90;;;2.17;;
22557;SDS011;11445;53.816;8.902;2023-01-15T06:59:18;22.75;;;2.17;;
22557;SDS011;11445;53.816;8.902;2023-01-15T07:01:46;11.40;;;2.20;;
22557;SDS011;11445;53.816;8.902;2023-01-15T07:04:13;15.68;;;2.35;;
22557;SDS011;11445;53.816;8.902;2023-01-15T07:06:40;13.43;;;1.92;;
22557;SDS011;11445;53.816;8.902;2023-01-15T07:09:07;18.02;;;2.17;;
22557;SDS011;11445;53.816;8.902;2023-01-15T07:11:35;11.68;;;1.90;;
22557;SDS011;11445;53.816;8.902;2023-01-15T07:14:13;21.33;;;2.30;;
22557;SDS011;11445;53.816;8.902;2023-01-15T07:16:42;16.42;;;2.15;;
22557;SDS011;11445;53.816;8.902;2023-01-15T07:19:09;17.17;;;2.35;;
22557;SDS011;11445;53.816;8.902;2023-01-15T07:21:36;11.60;;;1.95;;
22557;SDS011;11445;53.816;8.902;2023-01-15T07:24:03;19.23;;;2.70;;
22557;SDS011;11445;53.816;8.902;2023-01-15T07:26:31;10.00;;;2.20;;
22557;SDS011;11445;53.816;8.902;2023-01-15T07:28:58;15.27;;;2.13;;
22557;SDS011;11445;53.816;8.902;2023-01-15T07:31:25;14.05;;;2.15;;
22557;SDS011;11445;53.816;8.902;2023-01-15T07:33:55;7.70;;;1.90;;
22557;SDS011;11445;53.816;8.902;2023-01-15T07:36:22;11.30;;;1.80;;
22557;SDS011;11445;53.816;8.902;2023-01-15T07:38:50;14.10;;;2.33;;
22557;SDS011;11445;53.816;8.902;2023-01-15T07:41:17;5.88;;;1.73;;
22557;SDS011;11445;53.816;8.902;2023-01-15T07:44:02;19.25;;;2.22;;
22557;SDS011;11445;53.816;8.902;2023-01-15T07:46:46;13.43;;;2.03;;
22557;SDS011;11445;53.816;8.902;2023-01-15T07:49:32;16.65;;;2.40;;
22557;SDS011;11445;53.816;8.902;2023-01-15T07:52:12;11.13;;;2.10;;
22557;SDS011;11445;53.816;8.902;2023-01-15T07:54:40;10.18;;;1.80;;
22557;SDS011;11445;53.816;8.902;2023-01-15T07:57:07;13.20;;;1.92;;
22557;SDS011;11445;53.816;8.902;2023-01-15T07:59:35;10.63;;;2.42;;
22557;SDS011;11445;53.816;8.902;2023-01-15T08:02:02;8.43;;;1.70;;
22557;SDS011;11445;53.816;8.902;2023-01-15T08:04:29;8.80;;;1.80;;
22557;SDS011;11445;53.816;8.902;2023-01-15T08:06:59;8.35;;;1.60;;
22557;SDS011;11445;53.816;8.902;2023-01-15T08:09:26;10.77;;;1.80;;
22557;SDS011;11445;53.816;8.902;2023-01-15T08:11:54;11.23;;;1.80;;
22557;SDS011;11445;53.816;8.902;2023-01-15T08:14:41;9.95;;;1.88;;
22557;SDS011;11445;53.816;8.902;2023-01-15T08:17:25;10.02;;;1.95;;
22557;SDS011;11445;53.816;8.902;2023-01-15T08:19:52;9.18;;;2.05;;
22557;SDS011;11445;53.816;8.902;2023-01-15T08:22:21;16.23;;;2.05;;
22557;SDS011;11445;53.816;8.902;2023-01-15T08:24:48;10.18;;;1.98;;
22557;SDS011;11445;53.816;8.902;2023-01-15T08:27:15;12.10;;;2.00;;
22557;SDS011;11445;53.816;8.902;2023-01-15T08:29:42;10.63;;;2.20;;
22557;SDS011;11445;53.816;8.902;2023-01-15T08:32:09;10.95;;;1.92;;
22557;SDS011;11445;53.816;8.902;2023-01-15T08:34:36;11.18;;;1.98;;
22557;SDS011;11445;53.816;8.902;2023-01-15T08:37:03;6.72;;;1.58;;
22557;SDS011;11445;53.816;8.902;2023-01-15T08:39:32;8.68;;;1.88;;
22557;SDS011;11445;53.816;8.902;2023-01-15T08:41:59;6.55;;;1.80;;
22557;SDS011;11445;53.816;8.902;2023-01-15T08:44:26;9.77;;;2.75;;
22557;SDS011;11445;53.816;8.902;2023-01-15T08:46:53;10.65;;;2.15;;
22557;SDS011;11445;53.816;8.902;2023-01-15T08:49:20;10.50;;;2.05;;
22557;SDS011;11445;53.816;8.902;2023-01-15T08:51:47;10.20;;;1.70;;
22557;SDS011;11445;53.816;8.902;2023-01-15T08:54:17;11.48;;;1.95;;
22557;SDS011;11445;53.816;8.902;2023-01-15T08:56:47;7.53;;;2.00;;
22557;SDS011;11445;53.816;8.902;2023-01-15T08:59:14;7.88;;;1.67;;
22557;SDS011;11445;53.816;8.902;2023-01-15T09:01:43;10.10;;;2.10;;
22557;SDS011;11445;53.816;8.902;2023-01-15T09:04:12;10.82;;;1.63;;
22557;SDS011;11445;53.816;8.902;2023-01-15T09:06:40;9.25;;;2.10;;
22557;SDS011;11445;53.816;8.902;2023-01-15T09:09:08;13.52;;;1.92;;
22557;SDS011;11445;53.816;8.902;2023-01-15T09:11:35;10.55;;;1.85;;
22557;SDS011;11445;53.816;8.902;2023-01-15T09:14:05;9.48;;;2.13;;
22557;SDS011;11445;53.816;8.902;2023-01-15T09:16:33;11.70;;;1.70;;
22557;SDS011;11445;53.816;8.902;2023-01-15T09:19:00;8.57;;;1.90;;
22557;SDS011;11445;53.816;8.902;2023-01-15T09:21:27;12.23;;;2.40;;
22557;SDS011;11445;53.816;8.902;2023-01-15T09:23:55;10.52;;;1.67;;
22557;SDS011;11445;53.816;8.902;2023-01-15T09:26:24;13.30;;;2.05;;
22557;SDS011;11445;53.816;8.902;2023-01-15T09:28:54;6.87;;;1.60;;
22557;SDS011;11445;53.816;8.902;2023-01-15T09:31:23;13.63;;;2.45;;
22557;SDS011;11445;53.816;8.902;2023-01-15T09:33:50;7.53;;;1.67;;
22557;SDS011;11445;53.816;8.902;2023-01-15T09:36:19;10.27;;;1.63;;
22557;SDS011;11445;53.816;8.902;2023-01-15T09:38:49;5.72;;;1.10;;
22557;SDS011;11445;53.816;8.902;2023-01-15T09:41:16;10.70;;;1.60;;
22557;SDS011;11445;53.816;8.902;2023-01-15T09:44:05;8.77;;;1.70;;
22557;SDS011;11445;53.816;8.902;2023-01-15T09:46:52;9.73;;;1.63;;
22557;SDS011;11445;53.816;8.902;2023-01-15T09:49:29;13.15;;;1.88;;
22557;SDS011;11445;53.816;8.902;2023-01-15T09:52:09;9.85;;;1.83;;
22557;SDS011;11445;53.816;8.902;2023-01-15T09:54:45;9.82;;;1.60;;
22557;SDS011;11445;53.816;8.902;2023-01-15T09:57:18;12.65;;;1.50;;
22557;SDS011;11445;53.816;8.902;2023-01-15T09:59:48;7.15;;;1.30;;
22557;SDS011;11445;53.816;8.902;2023-01-15T10:02:21;9.30;;;1.35;;
22557;SDS011;11445;53.816;8.902;2023-01-15T10:04:56;6.88;;;1.70;;
22557;SDS011;11445;53.816;8.902;2023-01-15T10:10:00;5.65;;;1.35;;
22557;SDS011;11445;53.816;8.902;2023-01-15T10:12:31;15.63;;;2.03;;
22557;SDS011;11445;53.816;8.902;2023-01-15T10:15:11;11.52;;;1.60;;
22557;SDS011;11445;53.816;8.902;2023-01-15T10:17:49;5.68;;;1.45;;
22557;SDS011;11445;53.816;8.902;2023-01-15T10:20:25;9.80;;;1.38;;
22557;SDS011;11445;53.816;8.902;2023-01-15T10:23:03;15.88;;;1.98;;
22557;SDS011;11445;53.816;8.902;2023-01-15T10:25:53;5.32;;;1.33;;
22557;SDS011;11445;53.816;8.902;2023-01-15T10:28:28;8.88;;;1.50;;
22557;SDS011;11445;53.816;8.902;2023-01-15T10:30:58;3.17;;;1.27;;
22557;SDS011;11445;53.816;8.902;2023-01-15T10:33:43;13.32;;;1.40;;
22557;SDS011;11445;53.816;8.902;2023-01-15T10:36:20;6.07;;;1.05;;
22557;SDS011;11445;53.816;8.902;2023-01-15T10:38:51;9.27;;;1.40;;
22557;SDS011;11445;53.816;8.902;2023-01-15T10:41:32;7.05;;;1.75;;
22557;SDS011;11445;53.816;8.902;2023-01-15T10:44:12;9.30;;;1.60;;
22557;SDS011;11445;53.816;8.902;2023-01-15T10:46:44;7.78;;;1.98;;
22557;SDS011;11445;53.816;8.902;2023-01-15T10:49:17;10.18;;;1.58;;
22557;SDS011;11445;53.816;8.902;2023-01-15T10:51:45;5.80;;;1.65;;
22557;SDS011;11445;53.816;8.902;2023-01-15T10:54:16;8.05;;;1.50;;
22557;SDS011;11445;53.816;8.902;2023-01-15T10:56:51;8.55;;;1.60;;
22557;SDS011;11445;53.816;8.902;2023-01-15T10:59:29;12.70;;;1.63;;
22557;SDS011;11445;53.816;8.902;2023-01-15T11:02:02;10.82;;;2.00;;
22557;SDS011;11445;53.816;8.902;2023-01-15T11:04:40;11.55;;;1.80;;
22557;SDS011;11445;53.816;8.902;2023-01-15T11:07:08;9.57;;;1.35;;
22557;SDS011;11445;53.816;8.902;2023-01-15T11:09:36;4.40;;;1.02;;
22557;SDS011;11445;53.816;8.902;2023-01-15T11:12:11;4.15;;;0.90;;
22557;SDS011;11445;53.816;8.902;2023-01-15T11:15:12;8.05;;;1.20;;
22557;SDS011;11445;53.816;8.902;2023-01-15T11:17:59;13.10;;;1.63;;
22557;SDS011;11445;53.816;8.902;2023-01-15T11:20:47;18.02;;;1.85;;
22557;SDS011;11445;53.816;8.902;2023-01-15T11:23:16;3.78;;;1.20;;
22557;SDS011;11445;53.816;8.902;2023-01-15T11:25:49;6.65;;;1.27;;
22557;SDS011;11445;53.816;8.902;2023-01-15T11:28:28;5.75;;;0.90;;
22557;SDS011;11445;53.816;8.902;2023-01-15T11:30:56;6.68;;;1.13;;
22557;SDS011;11445;53.816;8.902;2023-01-15T11:33:25;4.80;;;1.25;;
22557;SDS011;11445;53.816;8.902;2023-01-15T11:35:55;10.27;;;2.10;;
22557;SDS011;11445;53.816;8.902;2023-01-15T11:38:24;4.63;;;1.02;;
22557;SDS011;11445;53.816;8.902;2023-01-15T11:40:52;4.70;;;1.30;;
22557;SDS011;11445;53.816;8.902;2023-01-15T11:43:21;6.07;;;1.38;;
22557;SDS011;11445;53.816;8.902;2023-01-15T11:46:18;7.93;;;1.40;;
22557;SDS011;11445;53.816;8.902;2023-01-15T11:49:16;3.25;;;1.10;;
22557;SDS011;11445;53.816;8.902;2023-01-15T11:52:04;12.25;;;1.40;;
22557;SDS011;11445;53.816;8.902;2023-01-15T11:54:35;13.70;;;2.75;;
22557;SDS011;11445;53.816;8.902;2023-01-15T11:57:04;6.45;;;1.45;;
22557;SDS011;11445;53.816;8.902;2023-01-15T11:59:32;7.90;;;1.25;;
22557;SDS011;11445;53.816;8.902;2023-01-15T12:01:59;9.88;;;1.15;;
22557;SDS011;11445;53.816;8.902;2023-01-15T12:04:32;10.38;;;1.40;;
22557;SDS011;11445;53.816;8.902;2023-01-15T12:07:04;3.83;;;1.00;;
22557;SDS011;11445;53.816;8.902;2023-01-15T12:12:41;3.65;;;1.05;;
22557;SDS011;11445;53.816;8.902;2023-01-15T12:15:22;3.63;;;1.00;;
22557;SDS011;11445;53.816;8.902;2023-01-15T12:18:18;6.90;;;1.30;;
22557;SDS011;11445;53.816;8.902;2023-01-15T12:20:56;8.00;;;1.40;;
22557;SDS011;11445;53.816;8.902;2023-01-15T12:26:27;5.13;;;1.00;;
22557;SDS011;11445;53.816;8.902;2023-01-15T12:28:58;3.25;;;1.10;;
22557;SDS011;11445;53.816;8.902;2023-01-15T12:34:02;2.58;;;1.00;;
22557;SDS011;11445;53.816;8.902;2023-01-15T12:36:39;6.68;;;1.58;;
22557;SDS011;11445;53.816;8.902;2023-01-15T12:39:15;5.93;;;1.15;;
22557;SDS011;11445;53.816;8.902;2023-01-15T12:41:47;7.07;;;1.88;;
22557;SDS011;11445;53.816;8.902;2023-01-15T12:44:37;7.97;;;1.40;;
22557;SDS011;11445;53.816;8.902;2023-01-15T12:47:28;6.05;;;1.02;;
22557;SDS011;11445;53.816;8.902;2023-01-15T12:50:02;5.78;;;1.30;;
22557;SDS011;11445;53.816;8.902;2023-01-15T12:52:38;2.75;;;1.17;;
22557;SDS011;11445;53.816;8.902;2023-01-15T12:55:12;10.43;;;1.15;;
22557;SDS011;11445;53.816;8.902;2023-01-15T12:57:41;2.67;;;1.00;;
22557;SDS011;11445;53.816;8.902;2023-01-15T13:00:14;3.47;;;1.08;;
22557;SDS011;11445;53.816;8.902;2023-01-15T13:02:52;13.68;;;2.00;;
22557;SDS011;11445;53.816;8.902;2023-01-15T13:05:26;8.95;;;1.60;;
22557;SDS011;11445;53.816;8.902;2023-01-15T13:07:58;5.30;;;1.55;;
22557;SDS011;11445;53.816;8.902;2023-01-15T13:10:31;5.18;;;1.50;;
22557;SDS011;11445;53.816;8.902;2023-01-15T13:13:06;5.32;;;1.20;;
22557;SDS011;11445;53.816;8.902;2023-01-15T13:15:41;7.53;;;1.58;;
22557;SDS011;11445;53.816;8.902;2023-01-15T13:18:20;11.45;;;1.40;;
22557;SDS011;11445;53.816;8.902;2023-01-15T13:20:52;5.80;;;1.35;;
22557;SDS011;11445;53.816;8.902;2023-01-15T13:23:26;7.95;;;1.30;;
22557;SDS011;11445;53.816;8.902;2023-01-15T13:26:08;8.40;;;1.70;;
22557;SDS011;11445;53.816;8.902;2023-01-15T13:28:49;6.38;;;1.35;;
22557;SDS011;11445;53.816;8.902;2023-01-15T13:31:30;7.22;;;1.52;;
22557;SDS011;11445;53.816;8.902;2023-01-15T13:34:14;8.80;;;1.70;;
22557;SDS011;11445;53.816;8.902;2023-01-15T13:36:47;9.15;;;1.77;;
22557;SDS011;11445;53.816;8.902;2023-01-15T13:39:16;7.60;;;2.05;;
22557;SDS011;11445;53.816;8.902;2023-01-15T13:41:49;11.63;;;2.05;;
22557;SDS011;11445;53.816;8.902;2023-01-15T13:44:35;5.88;;;1.52;;
22557;SDS011;11445;53.816;8.902;2023-01-15T13:47:07;5.25;;;2.00;;
22557;SDS011;11445;53.816;8.902;2023-01-15T13:49:37;5.72;;;1.85;;
22557;SDS011;11445;53.816;8.902;2023-01-15T13:52:07;10.30;;;2.65;;
22557;SDS011;11445;53.816;8.902;2023-01-15T13:54:47;9.15;;;2.78;;
22557;SDS011;11445;53.816;8.902;2023-01-15T13:57:21;12.85;;;1.98;;
22557;SDS011;11445;53.816;8.902;2023-01-15T13:59:50;8.73;;;1.77;;
22557;SDS011;11445;53.816;8.902;2023-01-15T14:02:25;11.73;;;1.48;;
22557;SDS011;11445;53.816;8.902;2023-01-15T14:04:53;7.32;;;1.65;;
22557;SDS011;11445;53.816;8.902;2023-01-15T14:07:21;7.07;;;1.80;;
22557;SDS011;11445;53.816;8.902;2023-01-15T14:10:06;6.63;;;1.48;;
22557;SDS011;11445;53.816;8.902;2023-01-15T14:12:37;7.45;;;1.33;;
22557;SDS011;11445;53.816;8.902;2023-01-15T14:15:26;2.95;;;1.42;;
22557;SDS011;11445;53.816;8.902;2023-01-15T14:18:07;8.18;;;1.52;;
22557;SDS011;11445;53.816;8.902;2023-01-15T14:20:54;7.45;;;1.50;;
22557;SDS011;11445;53.816;8.902;2023-01-15T14:23:35;2.75;;;1.25;;
22557;SDS011;11445;53.816;8.902;2023-01-15T14:26:24;5.50;;;1.17;;
22557;SDS011;11445;53.816;8.902;2023-01-15T14:29:02;8.65;;;1.50;;
22557;SDS011;11445;53.816;8.902;2023-01-15T14:31:55;4.10;;;0.98;;
22557;SDS011;11445;53.816;8.902;2023-01-15T14:34:28;5.78;;;1.13;;
22557;SDS011;11445;53.816;8.902;2023-01-15T14:36:57;2.63;;;0.73;;
22557;SDS011;11445;53.816;8.902;2023-01-15T14:39:30;4.75;;;0.95;;
22557;SDS011;11445;53.816;8.902;2023-01-15T14:45:05;4.63;;;1.00;;
22557;SDS011;11445;53.816;8.902;2023-01-15T14:47:42;3.13;;;1.17;;
22557;SDS011;11445;53.816;8.902;2023-01-15T14:50:22;5.50;;;1.02;;
22557;SDS011;11445;53.816;8.902;2023-01-15T14:52:57;3.08;;;1.00;;
22557;SDS011;11445;53.816;8.902;2023-01-15T14:55:27;4.65;;;1.25;;
22557;SDS011;11445;53.816;8.902;2023-01-15T14:57:56;6.30;;;1.60;;
22557;SDS011;11445;53.816;8.902;2023-01-15T15:00:29;6.88;;;1.58;;
22557;SDS011;11445;53.816;8.902;2023-01-15T15:03:00;8.73;;;1.10;;
22557;SDS011;11445;53.816;8.902;2023-01-15T15:05:30;5.22;;;1.27;;
22557;SDS011;11445;53.816;8.902;2023-01-15T15:07:59;3.22;;;0.75;;
22557;SDS011;11445;53.816;8.902;2023-01-15T15:10:30;5.85;;;1.17;;
22557;SDS011;11445;53.816;8.902;2023-01-15T15:13:02;4.03;;;1.02;;
22557;SDS011;11445;53.816;8.902;2023-01-15T15:15:41;6.15;;;1.05;;
22557;SDS011;11445;53.816;8.902;2023-01-15T15:18:15;8.75;;;1.55;;
22557;SDS011;11445;53.816;8.902;2023-01-15T15:20:50;6.20;;;0.98;;
22557;SDS011;11445;53.816;8.902;2023-01-15T15:23:25;4.28;;;0.98;;
22557;SDS011;11445;53.816;8.902;2023-01-15T15:25:57;6.53;;;0.98;;
22557;SDS011;11445;53.816;8.902;2023-01-15T15:28:25;8.90;;;1.05;;
22557;SDS011;11445;53.816;8.902;2023-01-15T15:30:54;5.03;;;1.40;;
22557;SDS011;11445;53.816;8.902;2023-01-15T15:33:27;4.75;;;1.00;;
22557;SDS011;11445;53.816;8.902;2023-01-15T15:36:01;4.45;;;1.20;;